sensor_id;sensor_type;location;lat;lon;timestamp;P1;durP1;ratioP1;P2;durP2;ratioP2
33840;SDS011;20142;28.494;-16.312;2022-07-18T14:35:51;18.15;;;3.75;;
33840;SDS011;20142;28.494;-16.312;2022-07-18T14:40:53;13.85;;;3.70;;
33840;SDS011;20142;28.494;-16.312;2022-07-18T14:45:55;16.63;;;3.30;;
33840;SDS011;20142;28.494;-16.312;2022-07-18T14:50:57;14.25;;;3.63;;
33840;SDS011;20142;28.494;-16.312;2022-07-18T14:55:59;15.57;;;3.28;;
33840;SDS011;20142;28.494;-16.312;2022-07-18T15:01:01;14.35;;;3.53;;
33840;SDS011;20142;28.494;-16.312;2022-07-18T15:06:03;15.60;;;3.70;;
33840;SDS011;20142;28.494;-16.312;2022-07-18T15:11:05;18.95;;;3.70;;
33840;SDS011;20142;28.494;-16.312;2022-07-18T15:16:07;14.05;;;3.17;;
33840;SDS011;20142;28.494;-16.312;2022-07-18T15:21:09;15.93;;;3.38;;
33840;SDS011;20142;28.494;-16.312;2022-07-18T15:26:11;18.60;;;3.80;;
33840;SDS011;20142;28.494;-16.312;2022-07-18T15:31:13;14.45;;;3.75;;
33840;SDS011;20142;28.494;-16.312;2022-07-18T15:36:15;14.68;;;3.35;;
33840;SDS011;20142;28.494;-16.312;2022-07-18T15:41:16;15.30;;;3.95;;
33840;SDS011;20142;28.494;-16.312;2022-07-18T15:46:20;17.42;;;3.80;;
33840;SDS011;20142;28.494;-16.312;2022-07-18T15:51:22;15.43;;;3.53;;
33840;SDS011;20142;28.494;-16.312;2022-07-18T15:56:24;15.95;;;3.60;;
33840;SDS011;20142;28.494;-16.312;2022-07-18T16:01:26;12.15;;;3.08;;
33840;SDS011;20142;28.494;-16.312;2022-07-18T16:06:28;14.32;;;3.42;;
33840;SDS011;20142;28.494;-16.312;2022-07-18T16:11:30;15.18;;;3.65;;
33840;SDS011;20142;28.494;-16.312;2022-07-18T16:16:33;17.00;;;4.07;;
33840;SDS011;20142;28.494;-16.312;2022-07-18T16:21:35;12.68;;;3.40;;
33840;SDS011;20142;28.494;-16.312;2022-07-18T16:26:38;13.55;;;3.67;;
33840;SDS011;20142;28.494;-16.312;2022-07-18T16:31:40;16.10;;;3.80;;
33840;SDS011;20142;28.494;-16.312;2022-07-18T16:36:42;13.55;;;3.28;;
33840;SDS011;20142;28.494;-16.312;2022-07-18T16:41:44;13.73;;;3.50;;
33840;SDS011;20142;28.494;-16.312;2022-07-18T16:46:46;16.88;;;3.85;;
33840;SDS011;20142;28.494;-16.312;2022-07-18T16:51:48;15.02;;;3.65;;
33840;SDS011;20142;28.494;-16.312;2022-07-18T16:56:51;16.77;;;4.38;;
33840;SDS011;20142;28.494;-16.312;2022-07-18T17:01:53;15.60;;;3.53;;
33840;SDS011;20142;28.494;-16.312;2022-07-18T17:06:55;22.50;;;4.40;;
33840;SDS011;20142;28.494;-16.312;2022-07-18T17:11:57;15.98;;;4.32;;
33840;SDS011;20142;28.494;-16.312;2022-07-18T17:17:00;17.88;;;4.43;;
33840;SDS011;20142;28.494;-16.312;2022-07-18T17:22:02;26.48;;;4.47;;
33840;SDS011;20142;28.494;-16.312;2022-07-18T17:27:04;15.75;;;3.72;;
33840;SDS011;20142;28.494;-16.312;2022-07-18T17:32:06;19.30;;;4.57;;
33840;SDS011;20142;28.494;-16.312;2022-07-18T17:37:09;21.52;;;4.75;;
33840;SDS011;20142;28.494;-16.312;2022-07-18T17:42:11;19.20;;;4.43;;
33840;SDS011;20142;28.494;-16.312;2022-07-18T17:47:14;18.92;;;4.63;;
33840;SDS011;20142;28.494;-16.312;2022-07-18T17:52:16;21.98;;;5.47;;
33840;SDS011;20142;28.494;-16.312;2022-07-18T17:57:19;22.80;;;5.10;;
33840;SDS011;20142;28.494;-16.312;2022-07-18T18:02:21;25.23;;;4.88;;
33840;SDS011;20142;28.494;-16.312;2022-07-18T18:07:23;26.63;;;5.40;;
33840;SDS011;20142;28.494;-16.312;2022-07-18T18:12:25;23.90;;;5.28;;
33840;SDS011;20142;28.494;-16.312;2022-07-18T18:17:27;27.70;;;5.43;;
33840;SDS011;20142;28.494;-16.312;2022-07-18T18:22:29;20.33;;;6.25;;
33840;SDS011;20142;28.494;-16.312;2022-07-18T18:27:31;27.08;;;6.40;;
33840;SDS011;20142;28.494;-16.312;2022-07-18T18:32:33;29.15;;;5.47;;
33840;SDS011;20142;28.494;-16.312;2022-07-18T18:37:35;24.83;;;5.63;;
33840;SDS011;20142;28.494;-16.312;2022-07-18T18:42:37;24.45;;;5.28;;
33840;SDS011;20142;28.494;-16.312;2022-07-18T18:47:39;23.63;;;5.28;;
33840;SDS011;20142;28.494;-16.312;2022-07-18T18:52:41;22.00;;;5.35;;
33840;SDS011;20142;28.494;-16.312;2022-07-18T18:57:45;24.65;;;5.30;;
33840;SDS011;20142;28.494;-16.312;2022-07-18T19:02:49;26.20;;;6.03;;
33840;SDS011;20142;28.494;-16.312;2022-07-18T19:07:52;26.05;;;5.43;;
33840;SDS011;20142;28.494;-16.312;2022-07-18T19:12:54;24.77;;;5.38;;
33840;SDS011;20142;28.494;-16.312;2022-07-18T19:17:55;26.70;;;6.07;;
33840;SDS011;20142;28.494;-16.312;2022-07-18T19:22:57;28.70;;;6.63;;
33840;SDS011;20142;28.494;-16.312;2022-07-18T19:27:59;32.92;;;7.22;;
33840;SDS011;20142;28.494;-16.312;2022-07-18T19:33:02;29.67;;;7.53;;
33840;SDS011;20142;28.494;-16.312;2022-07-18T19:38:04;28.52;;;7.32;;
33840;SDS011;20142;28.494;-16.312;2022-07-18T19:43:06;33.03;;;6.40;;
33840;SDS011;20142;28.494;-16.312;2022-07-18T19:48:09;31.02;;;7.22;;
33840;SDS011;20142;28.494;-16.312;2022-07-18T19:53:12;35.80;;;7.47;;
33840;SDS011;20142;28.494;-16.312;2022-07-18T19:58:14;34.60;;;8.05;;
33840;SDS011;20142;28.494;-16.312;2022-07-18T20:03:16;30.90;;;7.22;;
33840;SDS011;20142;28.494;-16.312;2022-07-18T20:08:18;40.63;;;6.85;;
33840;SDS011;20142;28.494;-16.312;2022-07-18T20:13:20;25.60;;;6.40;;
33840;SDS011;20142;28.494;-16.312;2022-07-18T20:18:22;32.17;;;7.15;;
33840;SDS011;20142;28.494;-16.312;2022-07-18T20:23:25;29.80;;;7.65;;
33840;SDS011;20142;28.494;-16.312;2022-07-18T20:28:27;33.00;;;7.45;;
33840;SDS011;20142;28.494;-16.312;2022-07-18T20:33:29;24.15;;;6.90;;
33840;SDS011;20142;28.494;-16.312;2022-07-18T20:38:31;37.60;;;7.38;;
33840;SDS011;20142;28.494;-16.312;2022-07-18T20:43:33;32.33;;;6.28;;
33840;SDS011;20142;28.494;-16.312;2022-07-18T20:48:35;18.02;;;5.75;;
33840;SDS011;20142;28.494;-16.312;2022-07-18T20:53:37;27.30;;;6.15;;
33840;SDS011;20142;28.494;-16.312;2022-07-18T20:58:39;28.63;;;6.10;;
33840;SDS011;20142;28.494;-16.312;2022-07-18T21:03:41;40.42;;;7.50;;
33840;SDS011;20142;28.494;-16.312;2022-07-18T21:08:42;28.73;;;6.65;;
33840;SDS011;20142;28.494;-16.312;2022-07-18T21:13:44;29.67;;;6.20;;
33840;SDS011;20142;28.494;-16.312;2022-07-18T21:18:46;30.42;;;6.72;;
33840;SDS011;20142;28.494;-16.312;2022-07-18T21:23:49;26.17;;;5.55;;
33840;SDS011;20142;28.494;-16.312;2022-07-18T21:28:51;27.83;;;6.18;;
33840;SDS011;20142;28.494;-16.312;2022-07-18T21:33:52;31.90;;;6.53;;
33840;SDS011;20142;28.494;-16.312;2022-07-18T21:38:55;29.05;;;6.10;;
33840;SDS011;20142;28.494;-16.312;2022-07-18T21:43:56;25.05;;;5.57;;
33840;SDS011;20142;28.494;-16.312;2022-07-18T21:48:58;27.25;;;6.68;;
33840;SDS011;20142;28.494;-16.312;2022-07-18T21:54:01;26.88;;;5.78;;
33840;SDS011;20142;28.494;-16.312;2022-07-18T21:59:03;31.35;;;6.82;;
33840;SDS011;20142;28.494;-16.312;2022-07-18T22:04:05;31.00;;;6.95;;
33840;SDS011;20142;28.494;-16.312;2022-07-18T22:09:07;33.22;;;7.38;;
33840;SDS011;20142;28.494;-16.312;2022-07-18T22:14:10;28.33;;;6.38;;
33840;SDS011;20142;28.494;-16.312;2022-07-18T22:19:13;28.98;;;6.72;;
33840;SDS011;20142;28.494;-16.312;2022-07-18T22:24:15;23.13;;;6.20;;
33840;SDS011;20142;28.494;-16.312;2022-07-18T22:29:17;30.05;;;6.13;;
33840;SDS011;20142;28.494;-16.312;2022-07-18T22:34:19;23.33;;;6.78;;
33840;SDS011;20142;28.494;-16.312;2022-07-18T22:39:21;25.45;;;6.43;;
33840;SDS011;20142;28.494;-16.312;2022-07-18T22:44:23;31.67;;;6.40;;
33840;SDS011;20142;28.494;-16.312;2022-07-18T22:49:25;27.65;;;6.50;;
33840;SDS011;20142;28.494;-16.312;2022-07-18T22:54:28;32.28;;;7.72;;
33840;SDS011;20142;28.494;-16.312;2022-07-18T22:59:29;26.65;;;5.75;;
33840;SDS011;20142;28.494;-16.312;2022-07-18T23:04:32;30.30;;;5.97;;
33840;SDS011;20142;28.494;-16.312;2022-07-18T23:09:34;34.88;;;6.50;;
33840;SDS011;20142;28.494;-16.312;2022-07-18T23:14:35;30.05;;;6.32;;
33840;SDS011;20142;28.494;-16.312;2022-07-18T23:19:37;33.13;;;7.07;;
33840;SDS011;20142;28.494;-16.312;2022-07-18T23:24:39;32.38;;;7.10;;
33840;SDS011;20142;28.494;-16.312;2022-07-18T23:29:41;34.13;;;7.05;;
33840;SDS011;20142;28.494;-16.312;2022-07-18T23:34:43;29.58;;;6.85;;
33840;SDS011;20142;28.494;-16.312;2022-07-18T23:39:45;24.27;;;6.57;;
33840;SDS011;20142;28.494;-16.312;2022-07-18T23:44:47;33.67;;;6.55;;
33840;SDS011;20142;28.494;-16.312;2022-07-18T23:49:49;37.08;;;7.10;;
33840;SDS011;20142;28.494;-16.312;2022-07-18T23:54:51;25.73;;;6.13;;
33840;SDS011;20142;28.494;-16.312;2022-07-18T23:59:53;29.30;;;6.03;;
